Estación de Lluta Medio

Ultimos registro cada 15 minutos 55
Estación Fecha / Hora Temperatura Humedad Lluvia Velocidad Dirección Radiación Presion
55 Lluta Medio 05-09-2026 13:30 23 51,9 0 4 328 826 952
54 Lluta Medio 05-09-2026 13:15 23 54,2 0 5,1 302 806 952
53 Lluta Medio 05-09-2026 13:00 22,6 55,7 0 5,3 308 773,4 952
52 Lluta Medio 05-09-2026 12:45 22,8 55,8 0 5,5 309 753,1 952
51 Lluta Medio 05-09-2026 12:30 22,8 53 0 5,5 308 793,1 952
50 Lluta Medio 05-09-2026 12:15 23,2 53,5 0 4,7 319 774 952
49 Lluta Medio 05-09-2026 12:00 23 51,6 0 4,6 312 756,7 953
48 Lluta Medio 05-09-2026 11:45 23 50,8 0 4,5 308 739,3 953
47 Lluta Medio 05-09-2026 11:30 22,8 50,8 0 4,5 324 721,3 953
46 Lluta Medio 05-09-2026 11:15 23,1 51,7 0 2,3 305 706,6 953
45 Lluta Medio 05-09-2026 11:00 21,7 48,4 0 4,4 340 662,8 954
44 Lluta Medio 05-09-2026 10:45 22,1 55,2 0 4,2 318 405,2 954
43 Lluta Medio 05-09-2026 10:30 22,2 50,8 0 1,1 267 445,1 954
42 Lluta Medio 05-09-2026 10:15 21,2 53,1 0 1 159 557,8 954
41 Lluta Medio 05-09-2026 10:00 19,9 57,3 0 1,4 117 701,9 954
40 Lluta Medio 05-09-2026 09:45 18,9 62,4 0 0,8 136 578,8 954
39 Lluta Medio 05-09-2026 09:30 18,1 63,7 0 0 160 495,9 954
38 Lluta Medio 05-09-2026 09:15 17,4 68,1 0 0,6 151 416,7 954
37 Lluta Medio 05-09-2026 09:00 16,8 67,2 0 0,7 336 361,6 954
36 Lluta Medio 05-09-2026 08:45 16,2 72,6 0 2,4 321 311,5 954
35 Lluta Medio 05-09-2026 08:30 15,8 74,1 0 2,6 313 272,9 954
34 Lluta Medio 05-09-2026 08:15 15,4 75,9 0 3,5 334 235 954
33 Lluta Medio 05-09-2026 08:00 15 75,2 0 3,4 298 171,9 953
32 Lluta Medio 05-09-2026 07:45 14,4 79 0 2,7 297 119,3 953
31 Lluta Medio 05-09-2026 07:30 14 81,2 0 1,8 285 53,6 953
30 Lluta Medio 05-09-2026 07:15 13,8 83,4 0 0,6 230 18,8 953
29 Lluta Medio 05-09-2026 07:00 13,8 85,6 0 1 210 7,2 953
28 Lluta Medio 05-09-2026 06:45 14 85,8 0 0,4 150 0,9 953
27 Lluta Medio 05-09-2026 06:30 14,1 85,3 0 0,2 154 0,2 954
26 Lluta Medio 05-09-2026 06:15 14,3 85,6 0 0 203 0,2 954
25 Lluta Medio 05-09-2026 06:00 14,1 85,6 0 0,1 203 0,2 954
24 Lluta Medio 05-09-2026 05:45 13,9 87,5 0 0 0 0,2 953
23 Lluta Medio 05-09-2026 05:30 13,9 89,2 0 0 0 0,2 953
22 Lluta Medio 05-09-2026 05:15 13,9 89,8 0 0 0 0,2 953
21 Lluta Medio 05-09-2026 05:00 13,9 89,9 0 0 0 0,2 953
20 Lluta Medio 05-09-2026 04:45 14 89,8 0 0 0 0,2 954
19 Lluta Medio 05-09-2026 04:30 13,9 89,6 0 0 0 0,2 954
18 Lluta Medio 05-09-2026 04:15 13,9 90,5 0 0,1 203 0,3 954
17 Lluta Medio 05-09-2026 04:00 13,9 91,3 0 0 0 0,7 954
16 Lluta Medio 05-09-2026 03:45 13,9 91,1 0 0 254 0,4 954
15 Lluta Medio 05-09-2026 03:30 13,9 91,1 0 0 0 0,2 954
14 Lluta Medio 05-09-2026 03:15 13,9 91,2 0 0 0 0,2 954
13 Lluta Medio 05-09-2026 03:00 13,9 91,1 0 0,1 267 0,2 954
12 Lluta Medio 05-09-2026 02:45 14 91 0 0,2 5 0,2 954
11 Lluta Medio 05-09-2026 02:30 14 90,6 0 0 0 0,2 954
10 Lluta Medio 05-09-2026 02:15 14 90,1 0 0 0 0,2 954
9 Lluta Medio 05-09-2026 02:00 14 90,2 0 0,2 58 0,2 954
8 Lluta Medio 05-09-2026 01:45 14 90,9 0 0 0 0,2 954
7 Lluta Medio 05-09-2026 01:30 14 91 0 0 0 0,2 954
6 Lluta Medio 05-09-2026 01:15 14 90,6 0 0 303 0,2 955
5 Lluta Medio 05-09-2026 01:00 14 90,9 0 0 287 0,2 954
4 Lluta Medio 05-09-2026 00:45 13,8 90,8 0 0 0 0,2 954
3 Lluta Medio 05-09-2026 00:30 13,6 90,4 0 0 0 0,2 954
2 Lluta Medio 05-09-2026 00:15 13,5 90,1 0 0 0 0,2 954
1 Lluta Medio 05-09-2026 00:00 13,2 90,4 0 0 0 0,2 954